sensor_id;sensor_type;location;lat;lon;timestamp;pressure;altitude;pressure_sealevel;temperature;humidity
50430;BME280;36359;41.556;-8.418;2023-10-09T00:00:15;100760.88;;;21.26;77.25
50430;BME280;36359;41.556;-8.418;2023-10-09T00:03:00;100748.63;;;21.36;76.34
50430;BME280;36359;41.556;-8.418;2023-10-09T00:05:27;100752.78;;;20.98;77.07
50430;BME280;36359;41.556;-8.418;2023-10-09T00:08:04;100759.63;;;21.16;75.38
50430;BME280;36359;41.556;-8.418;2023-10-09T00:10:30;100753.16;;;20.82;79.30
50430;BME280;36359;41.556;-8.418;2023-10-09T00:13:16;100747.88;;;20.94;78.54
50430;BME280;36359;41.556;-8.418;2023-10-09T00:15:41;100752.38;;;21.01;77.89
50430;BME280;36359;41.556;-8.418;2023-10-09T00:18:08;100750.69;;;21.20;77.66
50430;BME280;36359;41.556;-8.418;2023-10-09T00:20:40;100758.34;;;21.25;77.16
50430;BME280;36359;41.556;-8.418;2023-10-09T00:23:11;100752.63;;;21.20;76.91
50430;BME280;36359;41.556;-8.418;2023-10-09T00:25:50;100745.59;;;21.10;78.27
50430;BME280;36359;41.556;-8.418;2023-10-09T00:28:46;100746.84;;;21.01;79.71
50430;BME280;36359;41.556;-8.418;2023-10-09T00:31:13;100742.59;;;20.99;80.04
50430;BME280;36359;41.556;-8.418;2023-10-09T00:33:51;100747.88;;;20.94;80.13
50430;BME280;36359;41.556;-8.418;2023-10-09T00:36:20;100738.81;;;21.06;79.53
50430;BME280;36359;41.556;-8.418;2023-10-09T00:38:54;100740.69;;;21.06;79.38
50430;BME280;36359;41.556;-8.418;2023-10-09T00:41:20;100735.63;;;21.16;79.66
50430;BME280;36359;41.556;-8.418;2023-10-09T00:43:47;100730.53;;;21.20;79.83
50430;BME280;36359;41.556;-8.418;2023-10-09T00:46:16;100731.66;;;21.52;78.98
50430;BME280;36359;41.556;-8.418;2023-10-09T00:48:52;100735.50;;;21.51;79.55
50430;BME280;36359;41.556;-8.418;2023-10-09T00:51:18;100733.81;;;21.57;78.08
50430;BME280;36359;41.556;-8.418;2023-10-09T00:53:44;100724.44;;;21.51;78.09
50430;BME280;36359;41.556;-8.418;2023-10-09T00:56:11;100733.94;;;21.28;78.36
50430;BME280;36359;41.556;-8.418;2023-10-09T00:58:46;100726.94;;;21.26;79.93
50430;BME280;36359;41.556;-8.418;2023-10-09T01:01:12;100735.47;;;21.77;78.01
50430;BME280;36359;41.556;-8.418;2023-10-09T01:03:42;100724.81;;;21.35;77.90
50430;BME280;36359;41.556;-8.418;2023-10-09T01:06:11;100729.75;;;21.52;75.56
50430;BME280;36359;41.556;-8.418;2023-10-09T01:08:39;100729.03;;;21.17;73.36
50430;BME280;36359;41.556;-8.418;2023-10-09T01:13:49;100722.91;;;21.22;69.64
50430;BME280;36359;41.556;-8.418;2023-10-09T01:16:22;100723.31;;;21.32;67.66
50430;BME280;36359;41.556;-8.418;2023-10-09T01:18:49;100724.81;;;21.35;67.04
50430;BME280;36359;41.556;-8.418;2023-10-09T01:21:16;100718.66;;;21.19;66.76
50430;BME280;36359;41.556;-8.418;2023-10-09T01:23:44;100719.28;;;21.15;67.88
50430;BME280;36359;41.556;-8.418;2023-10-09T01:26:29;100729.50;;;21.21;68.89
50430;BME280;36359;41.556;-8.418;2023-10-09T01:29:14;100730.09;;;21.09;69.23
50430;BME280;36359;41.556;-8.418;2023-10-09T01:31:44;100721.19;;;21.07;70.62
50430;BME280;36359;41.556;-8.418;2023-10-09T01:34:18;100717.94;;;20.84;71.62
50430;BME280;36359;41.556;-8.418;2023-10-09T01:36:53;100717.63;;;21.27;77.33
50430;BME280;36359;41.556;-8.418;2023-10-09T01:39:25;100715.69;;;21.34;73.81
50430;BME280;36359;41.556;-8.418;2023-10-09T01:42:05;100717.56;;;21.00;74.99
50430;BME280;36359;41.556;-8.418;2023-10-09T01:44:34;100707.56;;;20.99;73.23
50430;BME280;36359;41.556;-8.418;2023-10-09T01:47:04;100717.94;;;20.91;70.59
50430;BME280;36359;41.556;-8.418;2023-10-09T01:49:34;100712.59;;;20.76;71.29
50430;BME280;36359;41.556;-8.418;2023-10-09T01:52:03;100713.44;;;20.63;73.29
50430;BME280;36359;41.556;-8.418;2023-10-09T01:54:39;100716.09;;;20.50;71.65
50430;BME280;36359;41.556;-8.418;2023-10-09T01:57:13;100705.69;;;20.45;72.04
50430;BME280;36359;41.556;-8.418;2023-10-09T01:59:39;100709.06;;;20.40;71.90
50430;BME280;36359;41.556;-8.418;2023-10-09T02:02:18;100704.69;;;20.53;72.25
50430;BME280;36359;41.556;-8.418;2023-10-09T02:05:07;100707.28;;;20.68;73.06
50430;BME280;36359;41.556;-8.418;2023-10-09T02:07:39;100705.84;;;20.85;73.55
50430;BME280;36359;41.556;-8.418;2023-10-09T02:10:21;100707.16;;;20.89;75.67
50430;BME280;36359;41.556;-8.418;2023-10-09T02:13:07;100706.25;;;20.69;74.06
50430;BME280;36359;41.556;-8.418;2023-10-09T02:15:36;100707.56;;;20.38;77.14
50430;BME280;36359;41.556;-8.418;2023-10-09T02:18:18;100703.84;;;20.52;80.57
50430;BME280;36359;41.556;-8.418;2023-10-09T02:23:34;100699.09;;;20.39;77.52
50430;BME280;36359;41.556;-8.418;2023-10-09T02:26:16;100699.91;;;20.27;77.97
50430;BME280;36359;41.556;-8.418;2023-10-09T02:28:57;100703.38;;;20.49;75.75
50430;BME280;36359;41.556;-8.418;2023-10-09T02:31:30;100696.78;;;20.43;73.83
50430;BME280;36359;41.556;-8.418;2023-10-09T02:34:16;100701.25;;;20.51;79.63
50430;BME280;36359;41.556;-8.418;2023-10-09T02:36:42;100707.19;;;20.48;75.19
50430;BME280;36359;41.556;-8.418;2023-10-09T02:39:09;100699.84;;;20.20;73.94
50430;BME280;36359;41.556;-8.418;2023-10-09T02:41:55;100703.06;;;20.24;71.79
50430;BME280;36359;41.556;-8.418;2023-10-09T02:44:32;100698.00;;;20.34;73.02
50430;BME280;36359;41.556;-8.418;2023-10-09T02:47:05;100702.47;;;20.83;72.39
50430;BME280;36359;41.556;-8.418;2023-10-09T02:49:38;100701.81;;;20.87;70.41
50430;BME280;36359;41.556;-8.418;2023-10-09T02:52:05;100704.75;;;20.79;69.36
50430;BME280;36359;41.556;-8.418;2023-10-09T02:54:33;100705.59;;;20.73;71.16
50430;BME280;36359;41.556;-8.418;2023-10-09T02:57:07;100706.97;;;20.97;71.57
50430;BME280;36359;41.556;-8.418;2023-10-09T02:59:36;100710.75;;;20.96;66.61
50430;BME280;36359;41.556;-8.418;2023-10-09T03:02:10;100706.06;;;20.83;66.48
50430;BME280;36359;41.556;-8.418;2023-10-09T03:04:36;100710.69;;;20.76;65.20
50430;BME280;36359;41.556;-8.418;2023-10-09T03:07:04;100712.00;;;20.80;65.42
50430;BME280;36359;41.556;-8.418;2023-10-09T03:09:31;100703.38;;;21.03;66.19
50430;BME280;36359;41.556;-8.418;2023-10-09T03:11:59;100701.03;;;21.00;63.06
50430;BME280;36359;41.556;-8.418;2023-10-09T03:14:33;100703.13;;;21.05;62.32
50430;BME280;36359;41.556;-8.418;2023-10-09T03:17:01;100705.47;;;21.15;64.60
50430;BME280;36359;41.556;-8.418;2023-10-09T03:19:28;100708.41;;;20.93;63.81
50430;BME280;36359;41.556;-8.418;2023-10-09T03:21:55;100708.16;;;20.75;65.57
50430;BME280;36359;41.556;-8.418;2023-10-09T03:24:25;100700.97;;;20.74;68.20
50430;BME280;36359;41.556;-8.418;2023-10-09T03:26:53;100695.00;;;20.29;69.20
50430;BME280;36359;41.556;-8.418;2023-10-09T03:29:21;100703.06;;;20.24;70.03
50430;BME280;36359;41.556;-8.418;2023-10-09T03:31:47;100701.03;;;20.04;70.51
50430;BME280;36359;41.556;-8.418;2023-10-09T03:34:16;100697.91;;;20.14;70.06
50430;BME280;36359;41.556;-8.418;2023-10-09T03:36:42;100692.81;;;20.11;68.89
50430;BME280;36359;41.556;-8.418;2023-10-09T03:39:09;100697.94;;;20.20;67.65
50430;BME280;36359;41.556;-8.418;2023-10-09T03:41:54;100698.78;;;20.62;68.91
50430;BME280;36359;41.556;-8.418;2023-10-09T03:44:20;100700.56;;;20.83;74.89
50430;BME280;36359;41.556;-8.418;2023-10-09T03:46:46;100703.31;;;20.97;68.04
50430;BME280;36359;41.556;-8.418;2023-10-09T03:49:12;100700.78;;;20.40;66.47
50430;BME280;36359;41.556;-8.418;2023-10-09T03:51:41;100699.34;;;20.51;66.41
50430;BME280;36359;41.556;-8.418;2023-10-09T03:54:07;100702.13;;;20.51;67.26
50430;BME280;36359;41.556;-8.418;2023-10-09T03:56:34;100702.03;;;20.38;66.93
50430;BME280;36359;41.556;-8.418;2023-10-09T03:59:00;100697.13;;;20.27;66.73
50430;BME280;36359;41.556;-8.418;2023-10-09T04:01:27;100700.19;;;20.04;67.32
50430;BME280;36359;41.556;-8.418;2023-10-09T04:04:04;100704.41;;;19.71;67.33
50430;BME280;36359;41.556;-8.418;2023-10-09T04:06:33;100709.66;;;19.66;70.30
50430;BME280;36359;41.556;-8.418;2023-10-09T04:09:00;100701.91;;;19.55;75.33
50430;BME280;36359;41.556;-8.418;2023-10-09T04:11:39;100713.56;;;19.79;76.74
50430;BME280;36359;41.556;-8.418;2023-10-09T04:14:09;100720.94;;;19.50;78.44
50430;BME280;36359;41.556;-8.418;2023-10-09T04:16:47;100715.22;;;19.73;75.73
50430;BME280;36359;41.556;-8.418;2023-10-09T04:19:51;100713.97;;;19.76;76.22
50430;BME280;36359;41.556;-8.418;2023-10-09T04:22:39;100717.53;;;19.98;71.20
50430;BME280;36359;41.556;-8.418;2023-10-09T04:25:18;100714.56;;;19.99;69.25
50430;BME280;36359;41.556;-8.418;2023-10-09T04:28:05;100717.16;;;20.07;68.50
50430;BME280;36359;41.556;-8.418;2023-10-09T04:30:47;100723.22;;;20.31;69.31
50430;BME280;36359;41.556;-8.418;2023-10-09T04:33:19;100716.88;;;20.37;67.32
50430;BME280;36359;41.556;-8.418;2023-10-09T04:36:04;100718.94;;;20.22;67.18
50430;BME280;36359;41.556;-8.418;2023-10-09T04:38:48;100722.25;;;20.10;69.86
50430;BME280;36359;41.556;-8.418;2023-10-09T04:41:30;100716.09;;;20.08;70.55
50430;BME280;36359;41.556;-8.418;2023-10-09T04:44:19;100723.06;;;20.04;69.52
50430;BME280;36359;41.556;-8.418;2023-10-09T04:46:50;100716.63;;;19.90;70.03
50430;BME280;36359;41.556;-8.418;2023-10-09T04:49:35;100724.84;;;19.84;71.04
50430;BME280;36359;41.556;-8.418;2023-10-09T04:52:35;100709.78;;;19.80;70.82
50430;BME280;36359;41.556;-8.418;2023-10-09T04:55:01;100720.53;;;19.74;70.59
50430;BME280;36359;41.556;-8.418;2023-10-09T05:00:13;100720.34;;;20.11;68.02
50430;BME280;36359;41.556;-8.418;2023-10-09T05:03:08;100722.25;;;20.10;67.38
50430;BME280;36359;41.556;-8.418;2023-10-09T05:05:38;100731.00;;;19.86;68.00
50430;BME280;36359;41.556;-8.418;2023-10-09T05:08:14;100731.53;;;20.03;68.12
50430;BME280;36359;41.556;-8.418;2023-10-09T05:10:56;100722.66;;;20.07;65.87
50430;BME280;36359;41.556;-8.418;2023-10-09T05:16:16;100723.75;;;20.13;65.26
50430;BME280;36359;41.556;-8.418;2023-10-09T05:18:53;100728.28;;;20.27;64.94
50430;BME280;36359;41.556;-8.418;2023-10-09T05:21:39;100722.97;;;19.91;68.58
50430;BME280;36359;41.556;-8.418;2023-10-09T05:24:07;100723.91;;;20.05;67.67
50430;BME280;36359;41.556;-8.418;2023-10-09T05:32:07;100730.97;;;20.14;67.26
50430;BME280;36359;41.556;-8.418;2023-10-09T05:34:46;100737.09;;;20.09;66.10
50430;BME280;36359;41.556;-8.418;2023-10-09T05:37:32;100740.06;;;20.14;73.81
50430;BME280;36359;41.556;-8.418;2023-10-09T05:39:59;100732.00;;;20.06;66.89
50430;BME280;36359;41.556;-8.418;2023-10-09T05:42:26;100730.59;;;19.89;67.24
50430;BME280;36359;41.556;-8.418;2023-10-09T05:45:10;100738.75;;;19.54;67.10
50430;BME280;36359;41.556;-8.418;2023-10-09T05:47:54;100733.66;;;19.51;67.17
50430;BME280;36359;41.556;-8.418;2023-10-09T05:50:30;100728.88;;;19.38;69.13
50430;BME280;36359;41.556;-8.418;2023-10-09T05:53:01;100732.09;;;19.42;71.65
50430;BME280;36359;41.556;-8.418;2023-10-09T05:55:28;100741.00;;;19.44;70.90
50430;BME280;36359;41.556;-8.418;2023-10-09T05:58:12;100727.25;;;19.22;72.20
50430;BME280;36359;41.556;-8.418;2023-10-09T06:01:10;100731.13;;;19.28;71.69
50430;BME280;36359;41.556;-8.418;2023-10-09T06:04:02;100731.44;;;19.40;71.18
50430;BME280;36359;41.556;-8.418;2023-10-09T06:06:41;100739.38;;;19.71;70.95
50430;BME280;36359;41.556;-8.418;2023-10-09T06:09:14;100737.31;;;19.58;70.02
50430;BME280;36359;41.556;-8.418;2023-10-09T06:11:48;100737.63;;;19.70;70.04
50430;BME280;36359;41.556;-8.418;2023-10-09T06:14:23;100742.81;;;19.58;69.08
50430;BME280;36359;41.556;-8.418;2023-10-09T06:17:12;100749.50;;;19.49;70.76
50430;BME280;36359;41.556;-8.418;2023-10-09T06:19:50;100734.16;;;19.61;74.43
50430;BME280;36359;41.556;-8.418;2023-10-09T06:22:24;100739.25;;;19.64;71.87
50430;BME280;36359;41.556;-8.418;2023-10-09T06:25:15;100740.84;;;19.52;73.57
50430;BME280;36359;41.556;-8.418;2023-10-09T06:27:44;100734.91;;;19.48;76.58
50430;BME280;36359;41.556;-8.418;2023-10-09T06:30:10;100736.28;;;19.38;76.52
50430;BME280;36359;41.556;-8.418;2023-10-09T06:32:45;100733.75;;;19.64;77.13
50430;BME280;36359;41.556;-8.418;2023-10-09T06:35:24;100740.41;;;19.48;76.54
50430;BME280;36359;41.556;-8.418;2023-10-09T06:37:59;100730.50;;;19.54;76.12
50430;BME280;36359;41.556;-8.418;2023-10-09T06:40:36;100734.91;;;19.48;76.24
50430;BME280;36359;41.556;-8.418;2023-10-09T06:43:03;100727.59;;;19.84;78.01
50430;BME280;36359;41.556;-8.418;2023-10-09T06:45:35;100738.81;;;19.61;76.27
50430;BME280;36359;41.556;-8.418;2023-10-09T06:48:13;100736.91;;;19.83;76.41
50430;BME280;36359;41.556;-8.418;2023-10-09T06:51:01;100735.63;;;19.85;75.92
50430;BME280;36359;41.556;-8.418;2023-10-09T06:53:46;100736.41;;;19.72;75.38
50430;BME280;36359;41.556;-8.418;2023-10-09T06:56:19;100746.13;;;19.68;76.18
50430;BME280;36359;41.556;-8.418;2023-10-09T06:59:06;100734.66;;;19.65;76.55
50430;BME280;36359;41.556;-8.418;2023-10-09T07:01:48;100743.72;;;19.87;76.37
50430;BME280;36359;41.556;-8.418;2023-10-09T07:04:20;100737.97;;;20.16;75.38
50430;BME280;36359;41.556;-8.418;2023-10-09T07:07:06;100737.53;;;20.13;74.29
50430;BME280;36359;41.556;-8.418;2023-10-09T07:09:38;100742.19;;;20.12;74.67
50430;BME280;36359;41.556;-8.418;2023-10-09T07:12:11;100744.94;;;20.12;75.19
50430;BME280;36359;41.556;-8.418;2023-10-09T07:14:46;100741.22;;;20.27;74.40
50430;BME280;36359;41.556;-8.418;2023-10-09T07:17:12;100750.28;;;20.20;73.92
50430;BME280;36359;41.556;-8.418;2023-10-09T07:19:48;100744.69;;;20.07;73.27
50430;BME280;36359;41.556;-8.418;2023-10-09T07:22:14;100748.75;;;20.11;73.17
50430;BME280;36359;41.556;-8.418;2023-10-09T07:24:47;100751.41;;;19.98;70.81
50430;BME280;36359;41.556;-8.418;2023-10-09T07:27:24;100746.59;;;19.79;72.35
50430;BME280;36359;41.556;-8.418;2023-10-09T07:30:11;100753.69;;;20.23;74.52
50430;BME280;36359;41.556;-8.418;2023-10-09T07:35:41;100760.31;;;19.72;74.10
50430;BME280;36359;41.556;-8.418;2023-10-09T07:38:21;100761.06;;;21.12;75.95
50430;BME280;36359;41.556;-8.418;2023-10-09T07:40:55;100768.63;;;21.84;71.00
50430;BME280;36359;41.556;-8.418;2023-10-09T07:43:28;100766.72;;;21.51;72.67
50430;BME280;36359;41.556;-8.418;2023-10-09T07:46:17;100771.91;;;22.53;70.77
50430;BME280;36359;41.556;-8.418;2023-10-09T07:49:00;100777.56;;;22.78;70.03
50430;BME280;36359;41.556;-8.418;2023-10-09T07:51:38;100780.44;;;23.03;68.95
50430;BME280;36359;41.556;-8.418;2023-10-09T07:54:04;100786.19;;;23.08;68.53
50430;BME280;36359;41.556;-8.418;2023-10-09T07:56:37;100790.06;;;23.00;68.88
50430;BME280;36359;41.556;-8.418;2023-10-09T07:59:10;100792.81;;;23.39;67.58
50430;BME280;36359;41.556;-8.418;2023-10-09T08:01:56;100787.75;;;23.35;67.64
50430;BME280;36359;41.556;-8.418;2023-10-09T08:04:28;100795.50;;;23.52;66.94
50430;BME280;36359;41.556;-8.418;2023-10-09T08:07:07;100791.16;;;23.63;66.58
50430;BME280;36359;41.556;-8.418;2023-10-09T08:09:35;100793.13;;;23.55;66.42
50430;BME280;36359;41.556;-8.418;2023-10-09T08:12:27;100793.09;;;23.62;66.02
50430;BME280;36359;41.556;-8.418;2023-10-09T08:15:24;100787.94;;;23.66;64.24
50430;BME280;36359;41.556;-8.418;2023-10-09T08:18:14;100785.03;;;23.54;64.64
50430;BME280;36359;41.556;-8.418;2023-10-09T08:21:02;100784.31;;;23.02;62.74
50430;BME280;36359;41.556;-8.418;2023-10-09T08:23:28;100799.28;;;23.26;66.87
50430;BME280;36359;41.556;-8.418;2023-10-09T08:26:19;100794.91;;;23.43;66.47
50430;BME280;36359;41.556;-8.418;2023-10-09T08:28:55;100807.28;;;23.41;65.27
50430;BME280;36359;41.556;-8.418;2023-10-09T08:31:41;100793.28;;;23.29;62.73
50430;BME280;36359;41.556;-8.418;2023-10-09T08:34:14;100796.25;;;22.24;63.62
50430;BME280;36359;41.556;-8.418;2023-10-09T08:36:52;100795.38;;;21.97;68.15
50430;BME280;36359;41.556;-8.418;2023-10-09T08:39:21;100794.38;;;22.83;67.47
50430;BME280;36359;41.556;-8.418;2023-10-09T08:41:54;100800.72;;;22.90;64.52
50430;BME280;36359;41.556;-8.418;2023-10-09T08:44:24;100797.75;;;22.92;67.34
50430;BME280;36359;41.556;-8.418;2023-10-09T08:46:54;100802.94;;;22.68;65.94
50430;BME280;36359;41.556;-8.418;2023-10-09T08:49:20;100799.81;;;23.09;66.61
50430;BME280;36359;41.556;-8.418;2023-10-09T08:51:48;100806.19;;;23.10;66.69
50430;BME280;36359;41.556;-8.418;2023-10-09T08:54:14;100808.66;;;22.73;68.00
50430;BME280;36359;41.556;-8.418;2023-10-09T08:56:41;100817.94;;;22.99;67.75
50430;BME280;36359;41.556;-8.418;2023-10-09T08:59:16;100805.81;;;23.00;65.93
50430;BME280;36359;41.556;-8.418;2023-10-09T09:01:50;100811.28;;;23.13;66.79
50430;BME280;36359;41.556;-8.418;2023-10-09T09:04:39;100817.13;;;22.85;66.57
50430;BME280;36359;41.556;-8.418;2023-10-09T09:07:06;100813.94;;;22.95;64.28
50430;BME280;36359;41.556;-8.418;2023-10-09T09:09:57;100814.09;;;23.06;62.30
50430;BME280;36359;41.556;-8.418;2023-10-09T09:12:24;100813.94;;;22.95;64.09
50430;BME280;36359;41.556;-8.418;2023-10-09T09:14:53;100812.53;;;23.17;63.19
50430;BME280;36359;41.556;-8.418;2023-10-09T09:17:32;100804.66;;;23.21;63.13
50430;BME280;36359;41.556;-8.418;2023-10-09T09:20:04;100813.34;;;23.24;64.18
50430;BME280;36359;41.556;-8.418;2023-10-09T09:22:55;100813.72;;;23.34;61.69
50430;BME280;36359;41.556;-8.418;2023-10-09T09:25:40;100807.66;;;23.51;59.45
50430;BME280;36359;41.556;-8.418;2023-10-09T09:28:10;100813.78;;;23.60;61.37
50430;BME280;36359;41.556;-8.418;2023-10-09T09:30:40;100811.41;;;23.63;61.47
50430;BME280;36359;41.556;-8.418;2023-10-09T09:33:21;100812.56;;;23.80;60.15
50430;BME280;36359;41.556;-8.418;2023-10-09T09:36:05;100809.56;;;23.82;60.14
50430;BME280;36359;41.556;-8.418;2023-10-09T09:38:34;100805.53;;;24.03;59.10
50430;BME280;36359;41.556;-8.418;2023-10-09T09:41:17;100809.69;;;24.19;58.38
50430;BME280;36359;41.556;-8.418;2023-10-09T09:43:56;100809.78;;;24.31;58.99
50430;BME280;36359;41.556;-8.418;2023-10-09T09:46:32;100806.03;;;24.43;58.33
50430;BME280;36359;41.556;-8.418;2023-10-09T09:49:03;100804.44;;;24.54;58.44
50430;BME280;36359;41.556;-8.418;2023-10-09T09:51:31;100806.19;;;24.67;56.29
50430;BME280;36359;41.556;-8.418;2023-10-09T09:53:58;100804.69;;;24.71;55.12
50430;BME280;36359;41.556;-8.418;2023-10-09T09:56:25;100810.75;;;24.80;56.44
50430;BME280;36359;41.556;-8.418;2023-10-09T09:58:51;100803.34;;;24.92;56.14
50430;BME280;36359;41.556;-8.418;2023-10-09T10:01:29;100808.81;;;24.99;56.12
50430;BME280;36359;41.556;-8.418;2023-10-09T10:04:05;100796.38;;;25.01;54.51
50430;BME280;36359;41.556;-8.418;2023-10-09T10:06:38;100808.28;;;25.38;52.62
50430;BME280;36359;41.556;-8.418;2023-10-09T10:09:06;100807.13;;;25.58;52.36
50430;BME280;36359;41.556;-8.418;2023-10-09T10:14:11;100801.16;;;25.85;50.57
50430;BME280;36359;41.556;-8.418;2023-10-09T10:19:59;100796.00;;;26.12;50.75
50430;BME280;36359;41.556;-8.418;2023-10-09T10:22:43;100815.72;;;26.10;50.63
50430;BME280;36359;41.556;-8.418;2023-10-09T10:25:34;100813.41;;;26.19;50.40
50430;BME280;36359;41.556;-8.418;2023-10-09T10:28:23;100778.22;;;26.48;48.98
50430;BME280;36359;41.556;-8.418;2023-10-09T10:31:11;100799.16;;;26.50;49.79
50430;BME280;36359;41.556;-8.418;2023-10-09T10:36:23;100807.66;;;26.96;49.07
50430;BME280;36359;41.556;-8.418;2023-10-09T10:39:03;100802.97;;;27.25;49.23
50430;BME280;36359;41.556;-8.418;2023-10-09T10:41:37;100805.88;;;27.30;49.14
50430;BME280;36359;41.556;-8.418;2023-10-09T10:44:31;100800.75;;;27.56;48.93
50430;BME280;36359;41.556;-8.418;2023-10-09T10:47:08;100802.97;;;27.71;47.22
50430;BME280;36359;41.556;-8.418;2023-10-09T10:49:53;100796.88;;;27.57;46.15
50430;BME280;36359;41.556;-8.418;2023-10-09T10:52:27;100790.69;;;27.83;46.10
50430;BME280;36359;41.556;-8.418;2023-10-09T10:55:14;100798.28;;;27.88;46.13
50430;BME280;36359;41.556;-8.418;2023-10-09T10:57:55;100788.38;;;28.14;45.26
50430;BME280;36359;41.556;-8.418;2023-10-09T11:00:28;100784.84;;;28.41;43.15
50430;BME280;36359;41.556;-8.418;2023-10-09T11:03:22;100790.81;;;28.44;43.73
50430;BME280;36359;41.556;-8.418;2023-10-09T11:06:01;100784.28;;;28.39;43.94
50430;BME280;36359;41.556;-8.418;2023-10-09T11:08:44;100787.84;;;28.34;44.53
50430;BME280;36359;41.556;-8.418;2023-10-09T11:11:20;100784.84;;;28.41;44.23
50430;BME280;36359;41.556;-8.418;2023-10-09T11:13:46;100782.25;;;28.51;44.96
50430;BME280;36359;41.556;-8.418;2023-10-09T11:16:25;100782.97;;;28.63;48.39
50430;BME280;36359;41.556;-8.418;2023-10-09T11:19:14;100784.66;;;28.86;47.07
50430;BME280;36359;41.556;-8.418;2023-10-09T11:21:54;100783.25;;;28.84;46.49
50430;BME280;36359;41.556;-8.418;2023-10-09T11:24:41;100769.63;;;28.10;49.25
50430;BME280;36359;41.556;-8.418;2023-10-09T11:27:09;100778.63;;;27.49;51.28
50430;BME280;36359;41.556;-8.418;2023-10-09T11:29:51;100773.75;;;27.56;51.83
50430;BME280;36359;41.556;-8.418;2023-10-09T11:32:21;100770.38;;;27.71;52.13
50430;BME280;36359;41.556;-8.418;2023-10-09T11:35:13;100767.06;;;28.42;49.51
50430;BME280;36359;41.556;-8.418;2023-10-09T11:37:44;100761.63;;;28.74;49.70
50430;BME280;36359;41.556;-8.418;2023-10-09T11:40:30;100761.34;;;28.97;48.05
50430;BME280;36359;41.556;-8.418;2023-10-09T11:43:15;100747.56;;;29.40;47.29
50430;BME280;36359;41.556;-8.418;2023-10-09T11:45:41;100759.31;;;29.69;46.29
50430;BME280;36359;41.556;-8.418;2023-10-09T11:48:20;100761.88;;;29.76;45.68
50430;BME280;36359;41.556;-8.418;2023-10-09T11:51:15;100750.47;;;28.74;48.91
50430;BME280;36359;41.556;-8.418;2023-10-09T11:53:47;100746.69;;;29.07;47.81
50430;BME280;36359;41.556;-8.418;2023-10-09T11:56:16;100746.25;;;28.98;48.70
50430;BME280;36359;41.556;-8.418;2023-10-09T11:58:48;100741.31;;;29.60;48.23
50430;BME280;36359;41.556;-8.418;2023-10-09T12:01:17;100741.56;;;29.53;47.35
50430;BME280;36359;41.556;-8.418;2023-10-09T12:06:21;100736.13;;;29.41;46.41
50430;BME280;36359;41.556;-8.418;2023-10-09T15:42:52;100581.09;;;31.21;31.24
50430;BME280;36359;41.556;-8.418;2023-10-09T15:45:21;100579.69;;;31.34;30.49
50430;BME280;36359;41.556;-8.418;2023-10-09T15:47:48;100579.41;;;31.40;29.81
50430;BME280;36359;41.556;-8.418;2023-10-09T15:50:16;100574.94;;;30.83;32.07
50430;BME280;36359;41.556;-8.418;2023-10-09T15:52:42;100578.28;;;31.57;29.87
50430;BME280;36359;41.556;-8.418;2023-10-09T15:55:09;100573.81;;;31.40;31.06
50430;BME280;36359;41.556;-8.418;2023-10-09T15:57:41;100574.91;;;31.09;31.45
50430;BME280;36359;41.556;-8.418;2023-10-09T16:00:08;100571.84;;;31.05;31.07
50430;BME280;36359;41.556;-8.418;2023-10-09T16:02:47;100576.03;;;31.43;30.43
50430;BME280;36359;41.556;-8.418;2023-10-09T16:05:13;100581.66;;;31.49;31.06
50430;BME280;36359;41.556;-8.418;2023-10-09T16:07:42;100574.63;;;31.56;30.82
50430;BME280;36359;41.556;-8.418;2023-10-09T16:10:09;100574.06;;;31.54;31.57
50430;BME280;36359;41.556;-8.418;2023-10-09T16:12:37;100579.97;;;31.42;33.25
50430;BME280;36359;41.556;-8.418;2023-10-09T16:15:03;100573.47;;;30.75;34.66
50430;BME280;36359;41.556;-8.418;2023-10-09T16:17:34;100570.13;;;30.68;34.96
50430;BME280;36359;41.556;-8.418;2023-10-09T16:20:01;100575.75;;;30.94;35.02
50430;BME280;36359;41.556;-8.418;2023-10-09T16:22:27;100569.03;;;31.00;35.70
50430;BME280;36359;41.556;-8.418;2023-10-09T16:24:59;100567.63;;;31.03;35.78
50430;BME280;36359;41.556;-8.418;2023-10-09T16:27:26;100565.41;;;30.94;36.43
50430;BME280;36359;41.556;-8.418;2023-10-09T16:29:53;100572.41;;;31.07;35.66
50430;BME280;36359;41.556;-8.418;2023-10-09T16:32:20;100577.47;;;30.95;36.36
50430;BME280;36359;41.556;-8.418;2023-10-09T16:34:52;100570.38;;;30.67;36.81
50430;BME280;36359;41.556;-8.418;2023-10-09T16:37:18;100577.91;;;30.56;37.22
50430;BME280;36359;41.556;-8.418;2023-10-09T16:39:51;100578.78;;;30.62;37.01
50430;BME280;36359;41.556;-8.418;2023-10-09T16:42:19;100583.28;;;30.78;37.66
50430;BME280;36359;41.556;-8.418;2023-10-09T16:44:50;100587.53;;;30.86;36.88
50430;BME280;36359;41.556;-8.418;2023-10-09T16:47:15;100586.63;;;30.70;37.40
50430;BME280;36359;41.556;-8.418;2023-10-09T16:49:42;100586.59;;;30.54;37.68
50430;BME280;36359;41.556;-8.418;2023-10-09T16:52:08;100591.91;;;30.46;37.78
50430;BME280;36359;41.556;-8.418;2023-10-09T16:54:39;100589.94;;;30.46;37.83
50430;BME280;36359;41.556;-8.418;2023-10-09T16:57:10;100591.63;;;30.42;37.85
50430;BME280;36359;41.556;-8.418;2023-10-09T16:59:38;100591.56;;;30.32;38.40
50430;BME280;36359;41.556;-8.418;2023-10-09T17:02:03;100591.59;;;30.27;38.66
50430;BME280;36359;41.556;-8.418;2023-10-09T17:04:33;100588.41;;;30.13;38.82
50430;BME280;36359;41.556;-8.418;2023-10-09T17:07:00;100590.91;;;30.09;38.64
50430;BME280;36359;41.556;-8.418;2023-10-09T17:09:30;100597.59;;;30.08;39.06
50430;BME280;36359;41.556;-8.418;2023-10-09T17:11:56;100592.56;;;30.00;39.67
50430;BME280;36359;41.556;-8.418;2023-10-09T17:14:23;100589.97;;;29.83;39.70
50430;BME280;36359;41.556;-8.418;2023-10-09T17:16:52;100584.63;;;29.77;40.33
50430;BME280;36359;41.556;-8.418;2023-10-09T17:19:20;100585.59;;;29.60;40.67
50430;BME280;36359;41.556;-8.418;2023-10-09T17:21:45;100590.75;;;29.36;41.17